Humidity-temperature Sensor

Selected Measurement Type: Air Temperature

 
Air Temperature [°C]     6 entries per hour
Showing data from 8/6/2017 (00:00:00 Z) to 8/3/2017 (00:01:00 Z)
Previous Next [ Day | 3-Days | 7-Days ]
First Last
Prev [ Day | 3-Days | 7-Days ] Next
First Last

Start Time:     :
End Time:     :     
Time (in GMT) :00 :50 :40 :30 :20 :10
Previous Next [ Day | 3-Days | 7-Days ]
First Last
Prev [ Day | 3-Days | 7-Days ] Next
First Last


123 => good data
MM => data is determined as missing
-- => data not received/configured
Back to Top Back to Top
8/6/2017 00:00 to 23:10 27.07 27.44 27.89 28.71 28.77 28.69
8/5/2017 23:00 to 22:10 28.62 28.64 28.52 28.36 28.49 28.60
8/5/2017 22:00 to 21:10 28.49 28.34 28.41 28.17 28.31 28.13
8/5/2017 21:00 to 20:10 28.22 28.21 28.05 28.18 28.33 28.31
8/5/2017 20:00 to 19:10 28.20 28.17 27.97 27.98 28.10 27.81
8/5/2017 19:00 to 18:10 27.98 27.93 28.10 27.99 27.89 27.95
8/5/2017 18:00 to 17:10 28.03 28.23 27.91 27.90 28.29 28.26
8/5/2017 17:00 to 16:10 28.22 28.38 28.36 28.24 28.15 28.18
8/5/2017 16:00 to 15:10 28.07 27.93 27.77 27.56 27.52 27.47
8/5/2017 15:00 to 14:10 27.47 27.14 27.10 26.97 26.86 27.29
8/5/2017 14:00 to 13:10 27.51 27.31 27.37 26.84 26.28 25.99
8/5/2017 13:00 to 12:10 27.95 28.31 28.18 28.05 28.01 28.53
8/5/2017 12:00 to 11:10 28.67 28.74 28.71 28.80 28.77 28.75
8/5/2017 11:00 to 10:10 28.75 28.71 28.79 28.90 28.75 28.82
8/5/2017 10:00 to 9:10 28.66 28.54 28.68 28.68 28.88 28.96
8/5/2017 09:00 to 8:10 28.85 28.88 28.88 28.89 28.90 28.82
8/5/2017 08:00 to 7:10 28.88 28.86 28.80 29.01 28.78 28.93
8/5/2017 07:00 to 6:10 28.80 28.87 28.76 28.89 28.89 28.78
8/5/2017 06:00 to 5:10 28.77 28.97 28.99 28.93 29.03 28.95
8/5/2017 05:00 to 4:10 29.27 29.21 29.19 29.43 29.33 29.20
8/5/2017 04:00 to 3:10 29.31 29.35 29.32 29.28 29.18 29.14
8/5/2017 03:00 to 2:10 29.34 29.23 29.08 29.23 29.15 29.10
8/5/2017 02:00 to 1:10 29.15 29.01 29.09 29.05 29.20 29.23
8/5/2017 01:00 to 0:10 29.17 29.06 29.08 29.13 29.07 29.14
8/5/2017 00:00 to 23:10 28.99 29.07 29.14 29.02 29.09 29.10
8/4/2017 23:00 to 22:10 29.01 28.96 28.97 28.98 29.12 28.94
8/4/2017 22:00 to 21:10 29.17 29.15 29.09 29.18 29.21 29.02
8/4/2017 21:00 to 20:10 29.12 29.11 29.07 28.97 28.89 28.89
8/4/2017 20:00 to 19:10 28.87 28.87 29.07 28.83 28.97 28.96
8/4/2017 19:00 to 18:10 29.09 29.03 29.06 29.09 28.95 28.88
8/4/2017 18:00 to 17:10 28.92 28.80 28.71 28.58 28.67 28.65
8/4/2017 17:00 to 16:10 28.69 28.64 28.60 28.57 28.67 28.60
8/4/2017 16:00 to 15:10 28.55 28.69 28.55 28.76 28.68 28.66
8/4/2017 15:00 to 14:10 28.68 28.54 28.52 28.59 28.67 28.61
8/4/2017 14:00 to 13:10 28.67 28.73 28.76 28.70 28.68 28.72
8/4/2017 13:00 to 12:10 28.71 28.66 28.78 28.66 28.50 27.55
8/4/2017 12:00 to 11:10 28.73 28.74 28.77 28.77 28.75 28.84
8/4/2017 11:00 to 10:10 28.84 28.90 28.86 28.84 28.74 28.79
8/4/2017 10:00 to 9:10 28.89 28.77 28.81 28.80 28.81 28.86
8/4/2017 09:00 to 8:10 28.87 28.97 28.89 28.81 28.96 28.92
8/4/2017 08:00 to 7:10 28.98 28.91 28.87 28.91 28.91 28.85
8/4/2017 07:00 to 6:10 28.93 28.89 28.85 28.77 28.90 28.89
8/4/2017 06:00 to 5:10 28.96 28.87 29.02 28.91 28.83 28.97
8/4/2017 05:00 to 4:10 29.14 29.12 29.10 29.21 29.28 29.10
8/4/2017 04:00 to 3:10 29.25 29.03 29.07 29.13 28.96 29.21
8/4/2017 03:00 to 2:10 29.06 28.95 28.88 28.98 28.96 29.14
8/4/2017 02:00 to 1:10 29.08 29.03 29.14 29.01 28.91 29.01
8/4/2017 01:00 to 0:10 29.01 29.14 29.28 29.24 29.19 29.23
8/4/2017 00:00 to 23:10 29.19 29.10 29.10 29.14 29.09 29.08
8/3/2017 23:00 to 22:10 29.21 29.11 28.91 28.80 28.73 28.86
8/3/2017 22:00 to 21:10 28.75 28.68 28.71 28.62 28.65 28.70
8/3/2017 21:00 to 20:10 28.51 28.48 28.50 28.57 28.30 27.94
8/3/2017 20:00 to 19:10 27.75 27.78 27.81 27.83 27.70 27.56
8/3/2017 19:00 to 18:10 27.41 27.40 27.07 26.86 27.03 26.73
8/3/2017 18:00 to 17:10 26.57 26.37 26.49 26.23 26.08 26.15
8/3/2017 17:00 to 16:10 25.88 25.67 25.28 25.65 25.73 26.67
8/3/2017 16:00 to 15:10 27.01 27.80 27.32 27.54 27.05 27.20
8/3/2017 15:00 to 14:10 27.63 28.53 28.54 28.69 28.60 28.69
8/3/2017 14:00 to 13:10 28.52 28.63 28.65 28.78 28.73 28.79
8/3/2017 13:00 to 12:10 28.74 28.74 28.56 28.43 28.60 28.81
8/3/2017 12:00 to 11:10 28.70 28.77 28.76 28.80 28.77 28.87
8/3/2017 11:00 to 10:10 28.81 28.81 28.94 28.89 28.75 28.76
8/3/2017 10:00 to 9:10 28.91 28.94 28.94 28.98 28.86 28.85
8/3/2017 09:00 to 8:10 28.85 28.83 28.84 28.97 28.92 28.88
8/3/2017 08:00 to 7:10 28.88 28.90 28.77 28.73 28.70 28.69
8/3/2017 07:00 to 6:10 28.75 28.62 28.58 28.64 28.56 28.56
8/3/2017 06:00 to 5:10 28.76 28.62 28.67 28.70 28.76 28.91
8/3/2017 05:00 to 4:10 28.87 28.76 28.92 28.92 28.82 28.93
8/3/2017 04:00 to 3:10 28.76 28.95 29.00 29.14 29.08 29.02
8/3/2017 03:00 to 2:10 29.04 28.95 28.80 28.77 28.46 29.05
8/3/2017 02:00 to 1:10 28.89 28.87 28.82 28.81 28.82 28.78
8/3/2017 01:00 to 0:10 28.75 28.74 28.68 28.45 28.45 28.58